createdAt,value
2022-10-14T00:00:47.963Z,98798.25
2022-10-14T00:03:18.138Z,98800.19
2022-10-14T00:05:51.757Z,98789.06
2022-10-14T00:08:21.964Z,98793.28
2022-10-14T00:11:02.193Z,98810.72
2022-10-14T00:13:33.291Z,98803.13
2022-10-14T00:16:04.872Z,98798.03
2022-10-14T00:21:22.395Z,98791.31
2022-10-14T00:23:53.569Z,98786.00
2022-10-14T00:26:27.766Z,98791.69
2022-10-14T00:28:57.812Z,98790.41
2022-10-14T00:31:41.205Z,98786.75
2022-10-14T00:34:15.510Z,98785.78
2022-10-14T00:36:47.118Z,98774.34
2022-10-14T00:39:23.296Z,98751.78
2022-10-14T00:42:00.829Z,98774.25
2022-10-14T00:44:34.160Z,98771.88
2022-10-14T00:47:08.069Z,98769.19
2022-10-14T00:49:50.218Z,98767.38
2022-10-14T00:52:25.980Z,98759.06
2022-10-14T00:55:11.668Z,98768.16
2022-10-14T00:57:43.992Z,98759.28
2022-10-14T01:00:24.614Z,98755.69
2022-10-14T01:02:59.991Z,98753.69
2022-10-14T01:05:39.924Z,98751.13
2022-10-14T01:08:18.357Z,98744.88
2022-10-14T01:11:01.596Z,98746.41
2022-10-14T01:16:24.916Z,98735.38
2022-10-14T01:19:15.730Z,98732.72
2022-10-14T01:21:53.775Z,98730.09
2022-10-14T01:24:53.877Z,98726.22
2022-10-14T01:28:01.094Z,98720.28
2022-10-14T01:30:48.593Z,98707.47
2022-10-14T01:33:28.653Z,98716.28
2022-10-14T01:36:33.887Z,98713.59
2022-10-14T01:39:20.127Z,98712.84
2022-10-14T01:42:02.652Z,98698.75
2022-10-14T01:44:47.420Z,98677.38
2022-10-14T01:47:25.469Z,98709.50
2022-10-14T01:50:09.447Z,98708.97
2022-10-14T01:52:46.918Z,98708.28
2022-10-14T01:55:24.957Z,98708.38
2022-10-14T01:58:02.835Z,98707.09
2022-10-14T02:00:36.682Z,98700.59
2022-10-14T02:03:10.691Z,98686.72
2022-10-14T02:06:06.756Z,98693.22
2022-10-14T02:09:02.741Z,98693.34
2022-10-14T02:11:47.030Z,98687.75
2022-10-14T02:14:45.137Z,98686.06
2022-10-14T02:17:45.586Z,98688.34
2022-10-14T02:20:41.751Z,98679.09
2022-10-14T02:23:24.602Z,98682.91
2022-10-14T02:26:11.273Z,98685.84
2022-10-14T02:28:56.765Z,98679.81
2022-10-14T02:31:32.655Z,98680.56
2022-10-14T02:34:07.406Z,98676.78
2022-10-14T02:36:43.267Z,98683.03
2022-10-14T02:39:14.039Z,98671.75
2022-10-14T02:41:44.182Z,98679.03
2022-10-14T02:44:17.777Z,98652.59
2022-10-14T02:46:52.506Z,98674.19
2022-10-14T02:49:39.980Z,98655.06
2022-10-14T02:52:13.884Z,98678.28
2022-10-14T02:54:41.736Z,98672.88
2022-10-14T02:57:18.759Z,98665.81
2022-10-14T02:59:52.957Z,98687.41
2022-10-14T03:02:25.436Z,98669.47
2022-10-14T03:04:56.063Z,98677.78
2022-10-14T03:07:37.854Z,98683.72
2022-10-14T03:10:18.096Z,98688.03
2022-10-14T03:12:51.803Z,98681.03
2022-10-14T03:15:41.440Z,98683.84
2022-10-14T03:18:17.285Z,98684.09
2022-10-14T03:20:50.713Z,98683.00
2022-10-14T03:23:36.808Z,98675.25
2022-10-14T03:29:07.629Z,98679.41
2022-10-14T03:31:59.393Z,98686.56
2022-10-14T03:34:44.744Z,98678.81
2022-10-14T03:37:48.577Z,98685.13
2022-10-14T03:40:38.573Z,98679.41
2022-10-14T03:43:13.326Z,98681.88
2022-10-14T03:45:55.960Z,98683.75
2022-10-14T03:48:40.998Z,98653.84
2022-10-14T03:51:12.443Z,98667.16
2022-10-14T03:53:58.756Z,98664.41
2022-10-14T03:56:41.090Z,98667.53
2022-10-14T03:59:19.877Z,98666.66
2022-10-14T04:02:02.166Z,98667.06
2022-10-14T04:04:33.676Z,98664.91
2022-10-14T04:07:16.854Z,98665.06
2022-10-14T04:09:56.643Z,98668.88
2022-10-14T04:12:37.649Z,98671.41
2022-10-14T04:15:25.905Z,98672.94
2022-10-14T04:18:17.342Z,98651.22
2022-10-14T04:20:50.950Z,98671.22
2022-10-14T04:23:25.553Z,98668.44
2022-10-14T04:26:02.007Z,98675.75
2022-10-14T04:28:34.459Z,98665.63
2022-10-14T04:31:20.723Z,98665.31
2022-10-14T04:34:00.019Z,98657.97
2022-10-14T04:36:36.724Z,98660.81
2022-10-14T04:39:17.835Z,98670.34
2022-10-14T04:41:49.185Z,98668.09
2022-10-14T04:44:35.384Z,98673.00
2022-10-14T04:47:07.905Z,98671.69
2022-10-14T04:49:45.451Z,98678.75
2022-10-14T04:52:22.624Z,98669.63
2022-10-14T04:55:05.831Z,98668.50
2022-10-14T04:57:49.701Z,98672.94
2022-10-14T05:00:25.323Z,98661.94
2022-10-14T05:03:02.153Z,98668.81
2022-10-14T05:05:43.329Z,98666.28
2022-10-14T05:08:15.021Z,98676.94
2022-10-14T05:10:49.856Z,98663.09
2022-10-14T05:13:34.360Z,98665.03
2022-10-14T05:16:12.998Z,98676.22
2022-10-14T05:18:43.175Z,98671.81
2022-10-14T05:21:19.287Z,98677.34
2022-10-14T05:23:58.287Z,98667.19
2022-10-14T05:26:31.336Z,98666.28
2022-10-14T05:29:14.263Z,98651.50
2022-10-14T05:31:48.605Z,98666.44
2022-10-14T05:34:36.294Z,98667.28
2022-10-14T05:37:08.054Z,98665.63
2022-10-14T05:39:46.801Z,98665.53
2022-10-14T05:42:23.635Z,98663.09
2022-10-14T05:44:58.883Z,98656.03
2022-10-14T05:47:34.632Z,98663.91
2022-10-14T05:50:15.972Z,98667.41
2022-10-14T05:52:49.830Z,98667.81
2022-10-14T05:55:38.499Z,98664.75
2022-10-14T05:58:24.012Z,98661.34
2022-10-14T06:00:54.437Z,98662.78
2022-10-14T06:03:26.724Z,98667.91
2022-10-14T06:05:59.931Z,98642.91
2022-10-14T06:08:32.055Z,98667.53
2022-10-14T06:11:05.560Z,98669.69
2022-10-14T06:13:38.651Z,98670.81
2022-10-14T06:16:15.675Z,98677.69
2022-10-14T06:18:45.152Z,98678.69
2022-10-14T06:21:17.509Z,98671.94
2022-10-14T06:23:52.791Z,98672.44
2022-10-14T06:26:29.541Z,98680.03
2022-10-14T06:29:13.058Z,98674.88
2022-10-14T06:31:41.079Z,98682.50
2022-10-14T06:34:14.608Z,98690.69
2022-10-14T06:36:45.319Z,98688.13
2022-10-14T06:39:16.455Z,98687.81
2022-10-14T06:41:47.358Z,98689.78
2022-10-14T06:44:24.778Z,98693.34
2022-10-14T06:46:53.174Z,98681.06
2022-10-14T06:49:27.014Z,98699.59
2022-10-14T06:51:58.214Z,98696.41
2022-10-14T06:54:39.073Z,98703.00
2022-10-14T06:57:10.917Z,98715.41
2022-10-14T06:59:47.159Z,98704.13
2022-10-14T07:02:19.722Z,98703.75
2022-10-14T07:04:53.708Z,98683.81
2022-10-14T07:07:30.001Z,98712.97
2022-10-14T07:10:06.369Z,98712.13
2022-10-14T07:12:40.097Z,98711.31
2022-10-14T07:15:10.904Z,98704.44
2022-10-14T07:17:44.331Z,98713.69
2022-10-14T07:20:16.525Z,98714.72
2022-10-14T07:22:46.956Z,98711.72
2022-10-14T07:25:19.466Z,98717.88
2022-10-14T07:27:50.882Z,98707.81
2022-10-14T07:30:22.433Z,98706.00
2022-10-14T07:32:55.995Z,98709.38
2022-10-14T07:35:27.240Z,98694.19
2022-10-14T07:38:00.970Z,98697.75
2022-10-14T07:40:31.484Z,98698.19
2022-10-14T07:43:09.111Z,98706.06
2022-10-14T07:45:51.553Z,98698.19
2022-10-14T07:48:32.704Z,98702.28
2022-10-14T07:51:16.092Z,98702.78
2022-10-14T07:53:44.566Z,98708.66
2022-10-14T07:56:16.564Z,98697.44
2022-10-14T07:58:46.629Z,98702.28
2022-10-14T08:01:20.897Z,98703.19
2022-10-14T08:03:54.983Z,98717.88
2022-10-14T08:06:31.008Z,98714.59
2022-10-14T08:09:01.578Z,98713.00
2022-10-14T08:11:32.860Z,98709.28
2022-10-14T08:14:02.753Z,98706.19
2022-10-14T08:16:37.627Z,98716.41
2022-10-14T08:19:14.421Z,98700.91
2022-10-14T08:21:49.566Z,98710.28
2022-10-14T08:24:23.471Z,98706.50
2022-10-14T08:27:08.144Z,98702.22
2022-10-14T08:29:44.803Z,98705.41
2022-10-14T08:32:16.118Z,98691.53
2022-10-14T08:34:47.205Z,98705.41
2022-10-14T08:37:17.797Z,98706.63
2022-10-14T08:39:48.637Z,98699.13
2022-10-14T08:42:29.765Z,98702.81
2022-10-14T08:45:23.681Z,98700.22
2022-10-14T08:48:03.695Z,98697.41
2022-10-14T08:50:57.026Z,98701.34
2022-10-14T08:53:59.427Z,98693.50
2022-10-14T08:56:30.267Z,98709.22
2022-10-14T08:59:09.778Z,98705.13
2022-10-14T09:01:54.972Z,98695.81
2022-10-14T09:04:28.271Z,98701.72
2022-10-14T09:07:02.183Z,98690.91
2022-10-14T09:12:51.195Z,98687.94
2022-10-14T09:15:28.934Z,98690.91
2022-10-14T09:18:33.022Z,98687.19
2022-10-14T09:21:48.051Z,98683.19
2022-10-14T09:27:26.697Z,98699.59
2022-10-14T09:30:13.319Z,98686.84
2022-10-14T09:32:53.742Z,98676.28
2022-10-14T09:35:38.852Z,98679.47
2022-10-14T09:38:13.352Z,98678.50
2022-10-14T09:40:59.591Z,98676.56
2022-10-14T09:43:33.484Z,98676.78
2022-10-14T09:46:11.816Z,98682.59
2022-10-14T09:48:55.952Z,98676.19
2022-10-14T09:51:40.783Z,98669.56
2022-10-14T09:54:27.158Z,98672.81
2022-10-14T09:57:11.884Z,98678.38
2022-10-14T10:00:07.460Z,98667.31
2022-10-14T10:02:46.693Z,98664.63
2022-10-14T10:05:42.961Z,98655.31
2022-10-14T10:08:24.672Z,98655.94
2022-10-14T10:11:05.717Z,98653.00
2022-10-14T10:13:49.098Z,98655.47
2022-10-14T10:16:27.273Z,98656.00
2022-10-14T10:19:05.256Z,98644.09
2022-10-14T10:21:40.639Z,98637.84
2022-10-14T10:24:26.209Z,98625.94
2022-10-14T10:27:00.291Z,98640.25
2022-10-14T10:29:43.643Z,98639.00
2022-10-14T10:32:51.163Z,98626.94
2022-10-14T10:35:53.801Z,98626.47
2022-10-14T10:38:35.098Z,98610.97
2022-10-14T10:41:32.035Z,98608.94
2022-10-14T10:44:27.992Z,98613.81
2022-10-14T10:47:16.844Z,98605.78
2022-10-14T10:50:11.015Z,98592.88
2022-10-14T10:53:18.168Z,98584.56
2022-10-14T10:56:08.079Z,98587.47
2022-10-14T10:59:03.874Z,98575.88
2022-10-14T11:02:05.658Z,98555.28
2022-10-14T11:05:17.344Z,98569.38
2022-10-14T11:08:14.731Z,98564.34
2022-10-14T11:11:35.200Z,98560.50
2022-10-14T11:14:24.522Z,98556.97
2022-10-14T11:17:34.049Z,98545.00
2022-10-14T11:20:39.370Z,98546.13
2022-10-14T11:23:28.299Z,98529.75
2022-10-14T11:26:19.491Z,98522.81
2022-10-14T11:29:02.852Z,98520.44
2022-10-14T11:31:43.115Z,98520.78
2022-10-14T11:34:54.581Z,98518.69
2022-10-14T11:38:12.420Z,98513.34
2022-10-14T11:41:18.704Z,98510.84
2022-10-14T11:44:00.609Z,98498.78
2022-10-14T11:46:46.259Z,98500.97
2022-10-14T11:49:40.392Z,98498.44
2022-10-14T11:52:13.248Z,98505.78
2022-10-14T11:54:49.857Z,98495.84
2022-10-14T11:57:48.517Z,98491.34
2022-10-14T12:00:44.405Z,98485.50
2022-10-14T12:04:10.066Z,98489.59
2022-10-14T12:07:19.923Z,98484.16
2022-10-14T12:10:03.067Z,98484.38
2022-10-14T12:12:33.491Z,98469.78
2022-10-14T12:15:21.941Z,98477.97
2022-10-14T12:18:03.674Z,98469.19
2022-10-14T12:21:01.808Z,98485.81
2022-10-14T12:23:46.039Z,98475.06
2022-10-14T12:26:35.556Z,98477.56
2022-10-14T12:29:05.539Z,98478.66
2022-10-14T12:31:43.641Z,98480.09
2022-10-14T12:34:34.990Z,98473.81
2022-10-14T12:37:35.476Z,98471.66
2022-10-14T12:40:14.150Z,98471.69
2022-10-14T12:43:21.660Z,98474.63
2022-10-14T12:46:03.678Z,98467.09
2022-10-14T12:48:36.967Z,98455.50
2022-10-14T12:51:23.500Z,98463.31
2022-10-14T12:57:35.259Z,98451.31
2022-10-14T13:00:39.221Z,98445.47
2022-10-14T13:03:28.812Z,98441.94
2022-10-14T13:06:39.234Z,98445.66
2022-10-14T13:09:21.312Z,98447.47
2022-10-14T13:12:05.342Z,98446.03
2022-10-14T13:15:06.117Z,98434.06
2022-10-14T13:17:47.860Z,98433.19
2022-10-14T13:20:51.503Z,98430.59
2022-10-14T13:23:34.085Z,98433.41
2022-10-14T13:26:55.208Z,98418.53
2022-10-14T13:30:02.460Z,98367.94
2022-10-14T13:32:46.708Z,98411.50
2022-10-14T13:36:05.588Z,98413.47
2022-10-14T13:38:39.154Z,98407.09
2022-10-14T13:41:22.516Z,98422.84
2022-10-14T13:44:12.047Z,98418.69
2022-10-14T13:46:49.008Z,98417.50
2022-10-14T13:49:23.486Z,98420.22
2022-10-14T13:52:09.246Z,98409.88
2022-10-14T13:54:41.738Z,98418.53
2022-10-14T13:58:07.412Z,98414.34
2022-10-14T14:00:40.511Z,98400.91
2022-10-14T14:03:42.133Z,98410.56
2022-10-14T14:06:21.234Z,98405.50
2022-10-14T14:09:04.591Z,98404.34
2022-10-14T14:11:39.490Z,98407.00
2022-10-14T14:14:44.708Z,98418.66
2022-10-14T14:17:27.393Z,98420.13
2022-10-14T14:20:04.153Z,98411.31
2022-10-14T14:22:40.325Z,98424.19
2022-10-14T14:25:35.288Z,98381.44
2022-10-14T14:28:31.041Z,98419.09
2022-10-14T14:31:04.999Z,98419.72
2022-10-14T14:33:40.886Z,98415.78
2022-10-14T14:36:28.040Z,98420.13
2022-10-14T14:39:08.009Z,98417.78
2022-10-14T14:41:38.207Z,98413.84
2022-10-14T14:44:24.744Z,98412.09
2022-10-14T14:47:01.823Z,98411.34
2022-10-14T14:50:18.325Z,98411.63
2022-10-14T14:52:54.438Z,98412.56
2022-10-14T14:56:14.377Z,98413.47
2022-10-14T14:58:59.484Z,98410.38
2022-10-14T15:01:33.025Z,98414.66
2022-10-14T15:04:14.792Z,98418.53
2022-10-14T15:07:03.802Z,98413.81
2022-10-14T15:10:05.533Z,98406.81
2022-10-14T15:12:42.083Z,98391.69
2022-10-14T15:15:35.831Z,98405.03
2022-10-14T15:18:30.900Z,98401.38
2022-10-14T15:21:34.955Z,98394.13
2022-10-14T15:24:11.872Z,98403.16
2022-10-14T15:26:41.156Z,98407.81
2022-10-14T15:29:18.822Z,98406.19
2022-10-14T15:32:14.832Z,98418.50
2022-10-14T15:34:48.332Z,98406.81
2022-10-14T15:37:22.702Z,98406.31
2022-10-14T15:40:25.463Z,98410.88
2022-10-14T15:43:06.613Z,98407.56
2022-10-14T15:45:37.425Z,98406.56
2022-10-14T15:48:08.143Z,98411.69
2022-10-14T15:50:42.597Z,98409.00
2022-10-14T15:53:16.854Z,98411.44
2022-10-14T15:55:45.536Z,98417.13
2022-10-14T15:58:29.258Z,98413.09
2022-10-14T16:01:02.564Z,98406.78
2022-10-14T16:03:40.884Z,98418.03
2022-10-14T16:06:17.846Z,98431.34
2022-10-14T16:08:53.141Z,98422.59
2022-10-14T16:11:31.417Z,98419.09
2022-10-14T16:14:09.889Z,98425.44
2022-10-14T16:16:49.831Z,98424.41
2022-10-14T16:19:20.166Z,98429.59
2022-10-14T16:22:00.672Z,98436.56
2022-10-14T16:24:31.086Z,98439.59
2022-10-14T16:27:05.311Z,98448.28
2022-10-14T16:29:36.133Z,98451.53
2022-10-14T16:32:14.800Z,98431.50
2022-10-14T16:34:46.183Z,98450.47
2022-10-14T16:37:20.153Z,98462.41
2022-10-14T16:39:51.888Z,98463.78
2022-10-14T16:42:25.806Z,98455.59
2022-10-14T16:44:57.245Z,98445.03
2022-10-14T16:47:30.871Z,98448.59
2022-10-14T16:50:08.242Z,98403.84
2022-10-14T16:52:54.881Z,98460.69
2022-10-14T16:55:24.888Z,98459.88
2022-10-14T16:57:52.548Z,98464.94
2022-10-14T17:00:22.830Z,98453.75
2022-10-14T17:03:14.051Z,98467.97
2022-10-14T17:05:44.724Z,98474.78
2022-10-14T17:08:18.369Z,98476.75
2022-10-14T17:11:00.664Z,98485.13
2022-10-14T17:13:35.076Z,98481.97
2022-10-14T17:16:05.878Z,98492.00
2022-10-14T17:18:43.441Z,98488.56
2022-10-14T17:21:36.639Z,98490.84
2022-10-14T17:24:15.413Z,98496.41
2022-10-14T17:26:45.244Z,98502.19
2022-10-14T17:29:25.543Z,98505.75
2022-10-14T17:32:01.071Z,98502.50
2022-10-14T17:34:41.338Z,98508.25
2022-10-14T17:37:11.912Z,98502.84
2022-10-14T17:39:43.821Z,98502.19
2022-10-14T17:42:16.747Z,98502.53
2022-10-14T17:44:51.544Z,98500.72
2022-10-14T17:47:22.126Z,98497.34
2022-10-14T17:49:55.162Z,98491.28
2022-10-14T17:52:29.918Z,98496.66
2022-10-14T17:55:13.791Z,98491.19
2022-10-14T17:57:46.168Z,98493.50
2022-10-14T18:00:18.589Z,98495.66
2022-10-14T18:02:56.813Z,98496.13
2022-10-14T18:05:27.427Z,98483.47
2022-10-14T18:08:00.624Z,98512.09
2022-10-14T18:13:16.577Z,98510.78
2022-10-14T18:15:47.680Z,98524.34
2022-10-14T18:18:32.422Z,98521.03
2022-10-14T18:21:10.046Z,98526.06
2022-10-14T18:23:41.016Z,98515.69
2022-10-14T18:26:29.549Z,98539.53
2022-10-14T18:29:15.297Z,98540.09
2022-10-14T18:31:46.588Z,98545.13
2022-10-14T18:34:19.003Z,98567.47
2022-10-14T18:36:50.085Z,98556.72
2022-10-14T18:39:21.417Z,98560.66
2022-10-14T18:41:52.080Z,98562.34
2022-10-14T18:44:25.930Z,98561.22
2022-10-14T18:47:00.744Z,98555.31
2022-10-14T18:49:36.816Z,98562.78
2022-10-14T18:52:18.204Z,98575.66
2022-10-14T18:54:49.355Z,98577.72
2022-10-14T18:57:27.134Z,98584.53
2022-10-14T19:00:02.280Z,98587.66
2022-10-14T19:02:36.652Z,98581.88
2022-10-14T19:05:21.026Z,98571.34
2022-10-14T19:08:02.789Z,98566.09
2022-10-14T19:10:55.408Z,98561.94
2022-10-14T19:13:34.199Z,98566.91
2022-10-14T19:16:04.707Z,98578.09
2022-10-14T19:18:36.454Z,98573.13
2022-10-14T19:21:13.883Z,98572.00
2022-10-14T19:23:55.368Z,98567.25
2022-10-14T19:26:33.399Z,98584.34
2022-10-14T19:29:06.400Z,98585.50
2022-10-14T19:31:43.237Z,98584.78
2022-10-14T19:34:15.096Z,98576.03
2022-10-14T19:36:56.521Z,98573.25
2022-10-14T19:39:27.344Z,98585.16
2022-10-14T19:41:58.389Z,98580.09
2022-10-14T19:44:28.752Z,98580.53
2022-10-14T19:49:49.385Z,98584.72
2022-10-14T19:52:33.744Z,98597.13
2022-10-14T19:55:08.370Z,98593.34
2022-10-14T19:57:52.718Z,98586.97
2022-10-14T20:00:29.169Z,98586.78
2022-10-14T20:03:06.911Z,98580.19
2022-10-14T20:05:38.569Z,98587.25
2022-10-14T20:10:54.447Z,98585.91
2022-10-14T20:13:25.339Z,98586.22
2022-10-14T20:16:02.543Z,98589.88
2022-10-14T20:18:35.307Z,98590.63
2022-10-14T20:21:19.139Z,98583.66
2022-10-14T20:23:52.497Z,98576.09
2022-10-14T20:26:32.440Z,98584.59
2022-10-14T20:29:03.180Z,98581.19
2022-10-14T20:31:34.899Z,98588.47
2022-10-14T20:34:10.435Z,98588.66
2022-10-14T20:36:51.553Z,98567.28
2022-10-14T20:39:25.123Z,98584.66
2022-10-14T20:47:11.387Z,98584.09
2022-10-14T20:49:41.289Z,98595.47
2022-10-14T20:52:17.371Z,98595.97
2022-10-14T20:54:45.522Z,98600.06
2022-10-14T20:57:16.774Z,98566.53
2022-10-14T20:59:47.194Z,98593.59
2022-10-14T21:02:22.009Z,98578.53
2022-10-14T21:04:56.078Z,98593.41
2022-10-14T21:07:29.436Z,98595.97
2022-10-14T21:10:03.438Z,98603.84
2022-10-14T21:12:50.375Z,98598.00
2022-10-14T21:15:21.079Z,98580.47
2022-10-14T21:17:51.742Z,98594.75
2022-10-14T21:20:21.666Z,98582.84
2022-10-14T21:23:05.740Z,98585.63
2022-10-14T21:25:35.653Z,98582.44
2022-10-14T21:28:06.708Z,98575.38
2022-10-14T21:30:34.700Z,98583.28
2022-10-14T21:33:12.602Z,98586.13
2022-10-14T21:35:50.229Z,98582.03
2022-10-14T21:38:20.079Z,98591.03
2022-10-14T21:40:48.648Z,98579.59
2022-10-14T21:43:18.073Z,98578.03
2022-10-14T21:45:54.313Z,98570.16
2022-10-14T21:48:29.356Z,98577.91
2022-10-14T21:51:11.405Z,98564.31
2022-10-14T21:53:47.640Z,98562.59
2022-10-14T21:56:20.173Z,98563.81
2022-10-14T21:58:57.948Z,98561.84
2022-10-14T22:01:31.344Z,98566.44
2022-10-14T22:04:10.290Z,98553.78
2022-10-14T22:06:41.245Z,98566.53
2022-10-14T22:09:15.498Z,98564.66
2022-10-14T22:11:45.888Z,98564.22
2022-10-14T22:14:18.438Z,98549.69
2022-10-14T22:16:51.494Z,98567.56
2022-10-14T22:19:25.583Z,98567.34
2022-10-14T22:21:59.315Z,98568.31
2022-10-14T22:24:39.412Z,98565.56
2022-10-14T22:27:09.066Z,98560.41
2022-10-14T22:29:38.782Z,98575.53
2022-10-14T22:32:06.609Z,98578.25
2022-10-14T22:34:40.284Z,98572.81
2022-10-14T22:37:09.719Z,98584.34
2022-10-14T22:39:40.933Z,98568.25
2022-10-14T22:42:12.017Z,98547.75
2022-10-14T22:44:43.099Z,98568.66
2022-10-14T22:47:17.950Z,98568.16
2022-10-14T22:49:49.359Z,98573.00
2022-10-14T22:55:12.114Z,98573.97
2022-10-14T22:57:46.170Z,98566.09
2022-10-14T23:00:26.987Z,98564.41
2022-10-14T23:03:06.632Z,98568.06
2022-10-14T23:05:37.525Z,98555.06
2022-10-14T23:08:17.597Z,98556.84
2022-10-14T23:10:52.614Z,98552.97
2022-10-14T23:13:23.970Z,98555.53
2022-10-14T23:16:04.614Z,98559.09
2022-10-14T23:21:34.732Z,98563.66
2022-10-14T23:24:07.694Z,98564.31
2022-10-14T23:26:37.220Z,98571.94
2022-10-14T23:29:15.200Z,98575.38
2022-10-14T23:31:43.758Z,98564.06
2022-10-14T23:34:16.712Z,98574.94
2022-10-14T23:36:58.311Z,98569.28
2022-10-14T23:39:29.633Z,98571.69
2022-10-14T23:42:04.188Z,98575.09
2022-10-14T23:44:38.439Z,98558.41
2022-10-14T23:47:06.958Z,98558.09
2022-10-14T23:49:37.964Z,98556.69
2022-10-14T23:52:13.712Z,98542.84
2022-10-14T23:54:41.592Z,98538.56
2022-10-14T23:57:16.785Z,98529.16
2022-10-14T23:59:47.303Z,98536.34
